^^
Station Historical Data
Daily Summary for February 14, 2017 Units:  English    Metric   Both
« Previous Day
Next Day »
Daily Weekly Monthly Yearly Custom
  High: Low: Average:
Temperature: 39.1 °F 24.8 °F 31.9 °F
Dew Point: 29.8 °F 18.4 °F 22.6 °F
Humidity: 79% 56% 69%
Wind Speed: 6.0mph 0.0mph 1.5mph
Wind Gust: 12.0mph - -
Wind- - South
Pressure: 30.02 in 29.75 in -
Precipitation: 0.00 in    
Historical Graphs
 
 
Tabular Data for February 14, 2017
Time Temperature Dew Point Pressure Wind Wind Speed Wind Gust Humidity Rainfall Rate (Hourly) Conditions
00:00 28.1 °F 20.2 °F 29.99 in Calm   7.0 mph 72% 0.00 in -SN
00:10 28.1 °F 20.6 °F 29.99 in North 3.0 mph 7.0 mph 73% 0.00 in -SN
00:20 28.1 °F 20.6 °F 29.99 in Calm   6.0 mph 73% 0.00 in -SN
00:30 28.0 °F 20.8 °F 29.99 in ESE 1.0 mph 3.0 mph 74% 0.00 in -SN
00:40 28.1 °F 20.9 °F 29.98 in WSW 1.0 mph 8.0 mph 74% 0.00 in -SN
00:50 28.0 °F 21.1 °F 29.98 in NNE 1.0 mph 7.0 mph 75% 0.00 in -SN
01:00 27.9 °F 21.0 °F 29.98 in Calm   5.0 mph 75% 0.00 in -SN
01:10 27.9 °F 21.0 °F 29.98 in Calm   4.0 mph 75% 0.00 in -SN
01:20 28.0 °F 20.8 °F 29.98 in North 1.0 mph 5.0 mph 74% 0.00 in -SN
01:30 28.0 °F 20.8 °F 29.98 in NNE 2.0 mph 4.0 mph 74% 0.00 in -SN
01:40 28.1 °F 20.9 °F 29.98 in WNW 1.0 mph 8.0 mph 74% 0.00 in -SN
01:50 28.0 °F 20.5 °F 29.98 in North 1.0 mph 3.0 mph 73% 0.00 in -SN
02:00 28.0 °F 20.5 °F 29.98 in NW 1.0 mph 4.0 mph 73% 0.00 in -SN
02:10 27.9 °F 20.4 °F 29.99 in Calm   8.0 mph 73% 0.00 in -SN
02:20 27.9 °F 20.4 °F 29.99 in NE 1.0 mph 6.0 mph 73% 0.00 in -SN
02:30 27.8 °F 20.3 °F 29.98 in West 1.0 mph 4.0 mph 73% 0.00 in -SN
02:40 27.8 °F 20.3 °F 29.99 in Calm   6.0 mph 73% 0.00 in -SN
02:50 27.7 °F 19.8 °F 29.98 in North 1.0 mph 4.0 mph 72% 0.00 in -SN
03:00 27.7 °F 19.8 °F 29.98 in Calm   5.0 mph 72% 0.00 in -SN
03:10 27.5 °F 19.7 °F 29.98 in Calm   2.0 mph 72% 0.00 in -SN
03:20 27.5 °F 19.7 °F 29.98 in North 1.0 mph 5.0 mph 72% 0.00 in -SN
03:30 27.4 °F 19.6 °F 29.98 in NE 1.0 mph 4.0 mph 72% 0.00 in -SN
03:40 27.0 °F 19.5 °F 29.98 in Calm   3.0 mph 73% 0.00 in -SN
03:50 26.7 °F 19.2 °F 29.98 in Calm   1.0 mph 73% 0.00 in -SN
04:00 26.2 °F 19.0 °F 29.98 in Calm   1.0 mph 74% 0.00 in -SN
04:30 25.5 °F 18.9 °F 29.98 in Calm   1.0 mph 76% 0.00 in -SN
04:40 25.6 °F 19.4 °F 29.99 in Calm   2.0 mph 77% 0.00 in -SN
04:50 25.7 °F 19.2 °F 29.99 in Calm   3.0 mph 76% 0.00 in -SN
05:00 25.7 °F 19.2 °F 29.99 in Calm   2.0 mph 76% 0.00 in -SN
05:10 25.8 °F 19.3 °F 29.99 in Calm   2.0 mph 76% 0.00 in -SN
05:20 25.8 °F 19.3 °F 29.99 in Calm   2.0 mph 76% 0.00 in -SN
05:30 25.6 °F 19.1 °F 29.99 in Calm     76% 0.00 in -SN
05:50 25.2 °F 19.0 °F 30.00 in Calm   1.0 mph 77% 0.00 in -SN
06:00 25.0 °F 18.8 °F 30.00 in Calm   1.0 mph 77% 0.00 in -SN
06:10 25.2 °F 19.3 °F 29.99 in Calm   1.0 mph 78% 0.00 in -SN
06:20 25.2 °F 18.7 °F 30.00 in Calm   3.0 mph 76% 0.00 in -SN
06:30 25.0 °F 18.5 °F 30.00 in Calm   1.0 mph 76% 0.00 in -SN
06:40 24.8 °F 18.6 °F 30.00 in Calm   1.0 mph 77% 0.00 in -SN
06:50 25.0 °F 18.8 °F 30.00 in Calm   1.0 mph 77% 0.00 in -SN
07:00 24.9 °F 18.4 °F 30.01 in Calm   1.0 mph 76% 0.00 in -SN
07:10 24.8 °F 18.6 °F 30.01 in Calm   1.0 mph 77% 0.00 in -SN
07:20 25.2 °F 19.0 °F 30.01 in Calm   2.0 mph 77% 0.00 in -SN
07:30 25.3 °F 18.8 °F 30.01 in Calm   2.0 mph 76% 0.00 in -SN
07:40 25.4 °F 18.9 °F 30.01 in Calm   1.0 mph 76% 0.00 in -SN
07:50 25.7 °F 18.9 °F 30.01 in Calm   1.0 mph 75% 0.00 in -SN
08:00 25.8 °F 19.0 °F 30.02 in Calm   2.0 mph 75% 0.00 in -SN
08:10 26.2 °F 19.4 °F 30.01 in Calm   2.0 mph 75% 0.00 in -SN
08:20 26.5 °F 19.3 °F 30.01 in Calm   2.0 mph 74% 0.00 in -SN
08:40 27.3 °F 19.8 °F 30.00 in Calm   2.0 mph 73% 0.00 in -SN
08:50 27.5 °F 19.7 °F 30.00 in SW 1.0 mph 5.0 mph 72% 0.00 in -SN
09:00 28.0 °F 20.1 °F 29.99 in SW 1.0 mph 3.0 mph 72% 0.00 in -SN
09:10 28.2 °F 20.0 °F 29.99 in West 1.0 mph 4.0 mph 71% 0.00 in -SN
09:20 28.3 °F 20.4 °F 29.98 in Calm   4.0 mph 72% 0.00 in -SN
09:30 28.8 °F 20.5 °F 29.97 in WSW 2.0 mph 6.0 mph 71% 0.00 in -SN
09:40 29.3 °F 20.7 °F 29.97 in West 1.0 mph 4.0 mph 70% 0.00 in -SN
09:50 29.4 °F 20.5 °F 29.97 in WSW 1.0 mph 5.0 mph 69% 0.00 in -SN
10:00 30.1 °F 21.1 °F 29.95 in West 1.0 mph 5.0 mph 69% 0.00 in -SN
10:10 30.1 °F 20.8 °F 29.96 in SSE 1.0 mph 5.0 mph 68% 0.00 in -SN
10:20 30.2 °F 20.6 °F 29.95 in WSW 1.0 mph 4.0 mph 67% 0.00 in -SN
10:30 30.2 °F 20.2 °F 29.95 in SW 3.0 mph 6.0 mph 66% 0.00 in -SN
10:40 30.4 °F 20.4 °F 29.95 in SSW 1.0 mph 5.0 mph 66% 0.00 in -SN
10:50 30.6 °F 20.6 °F 29.95 in Calm   4.0 mph 66% 0.00 in -SN
11:00 30.5 °F 20.5 °F 29.95 in Calm   4.0 mph 66% 0.00 in -SN
11:10 30.4 °F 20.1 °F 29.94 in SW 1.0 mph 5.0 mph 65% 0.00 in -SN
11:20 31.4 °F 21.7 °F 29.94 in SSW 1.0 mph 5.0 mph 67% 0.00 in -SN
11:30 31.7 °F 21.2 °F 29.93 in SW 2.0 mph 8.0 mph 65% 0.00 in -SN
11:40 32.1 °F 21.7 °F 29.93 in SW 3.0 mph 8.0 mph 65% 0.00 in -SN
11:50 32.5 °F 21.3 °F 29.92 in SSW 5.0 mph 7.0 mph 63% 0.00 in -SN
12:00 33.1 °F 21.5 °F 29.91 in SSW 5.0 mph 9.0 mph 62% 0.00 in -SN
12:10 33.5 °F 21.9 °F 29.90 in South 5.0 mph 8.0 mph 62% 0.00 in -SN
12:20 33.9 °F 22.6 °F 29.90 in South 2.0 mph 8.0 mph 63% 0.00 in -SN
12:30 33.6 °F 21.6 °F 29.90 in SSW 5.0 mph 10.0 mph 61% 0.00 in -SN
12:40 33.8 °F 21.4 °F 29.89 in South 5.0 mph 10.0 mph 60% 0.00 in -SN
12:50 33.8 °F 22.1 °F 29.88 in Calm   8.0 mph 62% 0.00 in -SN
13:00 34.4 °F 21.9 °F 29.88 in SSW 5.0 mph 10.0 mph 60% 0.00 in -SN
13:10 34.7 °F 21.8 °F 29.87 in South 5.0 mph 9.0 mph 59% 0.00 in -SN
13:20 34.7 °F 22.2 °F 29.86 in SW 6.0 mph 12.0 mph 60% 0.00 in -SN
13:30 35.2 °F 22.7 °F 29.86 in SW 3.0 mph 10.0 mph 60% 0.00 in -SN
13:39 35.7 °F 22.4 °F 29.86 in SSW 2.0 mph 8.0 mph 58% 0.00 in -SN
13:50 35.5 °F 22.2 °F 29.85 in South 5.0 mph 9.0 mph 58% 0.00 in -SN
14:00 35.7 °F 22.8 °F 29.85 in SW 3.0 mph 9.0 mph 59% 0.00 in -SN
14:10 35.9 °F 23.0 °F 29.85 in SSW 5.0 mph 12.0 mph 59% 0.00 in -SN
14:19 36.2 °F 23.2 °F 29.85 in SSW 3.0 mph 8.0 mph 59% 0.00 in -SN
14:30 36.1 °F 23.1 °F 29.84 in SW 5.0 mph 8.0 mph 59% 0.00 in -SN
14:40 36.5 °F 23.5 °F 29.83 in South 3.0 mph 9.0 mph 59% 0.00 in -SN
14:50 36.8 °F 23.4 °F 29.83 in SSW 2.0 mph 9.0 mph 58% 0.00 in -SN
15:00 37.6 °F 23.7 °F 29.83 in SW 5.0 mph 8.0 mph 57% 0.00 in -SN
15:09 37.7 °F 24.2 °F 29.82 in South 2.0 mph 7.0 mph 58% 0.00 in -SN
15:19 37.6 °F 24.6 °F 29.82 in SW 2.0 mph 9.0 mph 59% 0.01 in -SN
15:30 38.0 °F 24.9 °F 29.82 in SSW 2.0 mph 8.0 mph 59% 0.00 in -SN
15:39 38.4 °F 24.9 °F 29.82 in SSW 2.0 mph 8.0 mph 58% 0.00 in -SN
15:49 38.7 °F 25.2 °F 29.83 in SSW 1.0 mph 7.0 mph 58% 0.00 in -SN
16:00 39.0 °F 24.6 °F 29.82 in SSW 3.0 mph 9.0 mph 56% 0.00 in -SN
16:09 39.1 °F 25.6 °F 29.81 in SSW 1.0 mph 8.0 mph 58% 0.01 in -SN
16:19 39.1 °F 25.1 °F 29.81 in SSW 3.0 mph 8.0 mph 57% 0.00 in -SN
16:30 39.0 °F 25.0 °F 29.81 in SW 1.0 mph 10.0 mph 57% 0.00 in -SN
16:39 39.0 °F 25.5 °F 29.80 in SW 3.0 mph 12.0 mph 58% 0.00 in -SN
16:49 38.9 °F 24.9 °F 29.80 in SW 3.0 mph 8.0 mph 57% 0.00 in -SN
17:00 38.8 °F 25.3 °F 29.80 in SSW 1.0 mph 6.0 mph 58% 0.01 in -SN
17:09 38.5 °F 25.0 °F 29.80 in SW 2.0 mph 7.0 mph 58% 0.00 in -SN
17:19 37.5 °F 24.5 °F 29.80 in SSW 5.0 mph 7.0 mph 59% 0.00 in -SN
17:30 37.0 °F 24.4 °F 29.80 in SSW 2.0 mph 7.0 mph 60% 0.00 in -SN
17:39 36.6 °F 24.4 °F 29.80 in SW 1.0 mph 6.0 mph 61% 0.00 in -SN
17:49 36.3 °F 24.5 °F 29.81 in South 1.0 mph 4.0 mph 62% 0.00 in -SN
18:00 36.1 °F 24.7 °F 29.81 in SSW 1.0 mph 7.0 mph 63% 0.00 in -SN
18:09 35.9 °F 24.5 °F 29.81 in South 1.0 mph 6.0 mph 63% 0.00 in -SN
18:19 36.0 °F 24.6 °F 29.81 in South 2.0 mph 6.0 mph 63% 0.00 in -SN
18:29 35.8 °F 24.5 °F 29.82 in South 1.0 mph 5.0 mph 63% 0.00 in -SN
18:39 35.7 °F 24.3 °F 29.81 in SSW 2.0 mph 6.0 mph 63% 0.00 in -SN
18:49 35.7 °F 24.7 °F 29.82 in South 2.0 mph 7.0 mph 64% 0.00 in -SN
19:09 35.8 °F 24.8 °F 29.82 in South 2.0 mph 6.0 mph 64% 0.00 in -SN
19:19 35.9 °F 24.9 °F 29.82 in South 1.0 mph 6.0 mph 64% 0.00 in -SN
19:30 36.1 °F 24.7 °F 29.82 in South 2.0 mph 6.0 mph 63% 0.00 in -SN
19:39 36.3 °F 24.9 °F 29.82 in South 2.0 mph 6.0 mph 63% 0.00 in -SN
19:49 36.3 °F 24.9 °F 29.81 in South 2.0 mph 4.0 mph 63% 0.00 in -SN
19:59 36.2 °F 25.2 °F 29.80 in South 2.0 mph 6.0 mph 64% 0.00 in -SN
20:09 36.1 °F 25.1 °F 29.81 in SSE 1.0 mph 4.0 mph 64% 0.00 in -SN
20:19 35.9 °F 25.2 °F 29.81 in Calm   5.0 mph 65% 0.00 in -SN
20:29 35.0 °F 25.2 °F 29.81 in Calm   2.0 mph 67% 0.00 in -SN
20:39 34.5 °F 25.4 °F 29.81 in Calm   3.0 mph 69% 0.00 in -SN
20:49 33.9 °F 25.4 °F 29.81 in Calm   1.0 mph 71% 0.00 in -SN
20:59 33.7 °F 26.0 °F 29.81 in SE 1.0 mph 4.0 mph 73% 0.00 in -SN
21:09 34.3 °F 26.2 °F 29.81 in Calm   4.0 mph 72% 0.00 in -SN
21:19 34.3 °F 26.5 °F 29.80 in Calm   3.0 mph 73% 0.00 in -SN
21:29 34.8 °F 27.0 °F 29.80 in South 1.0 mph 6.0 mph 73% 0.00 in -SN
21:39 34.7 °F 26.9 °F 29.79 in South 1.0 mph 3.0 mph 73% 0.00 in -SN
21:49 34.9 °F 27.5 °F 29.79 in SSE 2.0 mph 7.0 mph 74% 0.00 in -SN
21:59 35.2 °F 27.7 °F 29.79 in SSE 1.0 mph 5.0 mph 74% 0.00 in -SN
22:09 35.2 °F 28.1 °F 29.78 in South 1.0 mph 6.0 mph 75% 0.00 in -SN
22:19 35.4 °F 28.6 °F 29.78 in SSW 2.0 mph 10.0 mph 76% 0.00 in -SN
22:29 35.5 °F 29.0 °F 29.77 in South 2.0 mph 8.0 mph 77% 0.00 in -SN
22:39 35.5 °F 29.4 °F 29.77 in SSW 2.0 mph 8.0 mph 78% 0.00 in -SN
22:49 35.6 °F 29.7 °F 29.77 in SSW 2.0 mph 7.0 mph 79% 0.00 in -SN
23:00 35.7 °F 29.8 °F 29.76 in SSW 2.0 mph 9.0 mph 79% 0.00 in -SN
23:09 35.7 °F 29.8 °F 29.76 in SSW 3.0 mph 8.0 mph 79% 0.00 in -SN
23:19 35.7 °F 29.8 °F 29.75 in South 3.0 mph 9.0 mph 79% 0.00 in -SN
23:29 35.9 °F 29.7 °F 29.75 in South 2.0 mph 10.0 mph 78% 0.00 in -SN
23:39 35.8 °F 29.3 °F 29.75 in SSW 2.0 mph 10.0 mph 77% 0.00 in -SN
23:49 35.8 °F 29.3 °F 29.75 in SSW 5.0 mph 9.0 mph 77% 0.00 in -SN
23:59 35.8 °F 29.3 °F 29.75 in South 2.0 mph 12.0 mph 77% 0.00 in -SN
TarryTown NY Weather
Compliments of Weather Underground - 1.75 mb